Terminal Aerodrome Forecast
Issued by NWS

Home | Current Version | Previous Version | Text Only | Print | Product List | Glossary On
Versions: 1 2 3 4 5 6 7 8 9 10 11 12
300
FTUS44 KEPZ 141732
TAFTCS
TAF
KTCS 141732Z 1418/1518 03015G25KT P6SM SCT150 BKN200
     FM150400 35008KT P6SM FEW100
     FM151200 VRB04KT P6SM SKC=

USA.gov is the U.S. government's official web portal to all federal, state and local government web resources and services.